Stratton Mountain, Vermont
Current Conditions -  °F | °C
As of 12:54 AM on Tuesday 21 Oct 2014 (Local Time) from KDDH Reporting Station
Overcast Overcast  
Wind Chill: 50°   Ceiling: 7500
Heat Index: 50°   Visibility: 10mi
Dew Point: 37°   Wind: 0mph
Humidity: 61%   Direction: NA
Pressure: 29.93"   Gusts: NA
Location:  43.11°N, 72.91°W
Report Text: KDDH 210454Z AUTO 00000KT 10SM SCT060 BKN075 OVC095 10/03 A2993 RMK AO2 SLP136 T01000028 401281039
Loading
Personal Weather Stations






























Interactive Weather Map
Tropical Storm Tracking
New forecast layout! Learn more

10-Day Weather Forecast

Advertisements
Track Severe Weather on mobile